Trujillo, Peru
Current Conditions -  °F | °C
As of 2:00 AM on Friday 28 Nov 2014 (Local Time) from SPRU Reporting Station
Scattered Clouds Scattered Clouds  
Wind Chill: 63°   Ceiling: Unl
Heat Index: 63°   Visibility: 4mi
Dew Point: 59°   Wind: 3mph
Humidity: 88%   Direction: 80°E
Pressure: 29.83"   Gusts: NA
Location:  8.11°S, 79.03°W
Report Text: SPRU 280700Z 08003KT 7000 SCT014 17/15 Q1010 RMK PP000
Loading
Personal Weather Stations






























Interactive Weather Map New forecast layout! Learn more

10-Day Weather Forecast

Advertisements
Track Severe Weather on mobile